Cobourg, Canada
Current Conditions -  °F | °C
As of 9:00 PM on Sunday 25 Jan 2015 (Local Time) from CYPQ Reporting Station
Broken Clouds Broken Clouds  
Wind Chill: -2°   Ceiling: 21000
Heat Index:   Visibility: 9mi
Dew Point:   Wind: 5mph
Humidity: 79%   Direction: 20°NNE
Pressure: 30.06"   Gusts: NA
Location:  43.96°N, 78.17°W
Report Text: CYPQ 260200Z AUTO 02004KT 9SM BKN210 BKN230 M14/M17 A3006 RMK SLP195
Loading
Personal Weather Stations






























Interactive Weather Map New forecast layout! Learn more

10-Day Weather Forecast

Advertisements
Track Severe Weather on mobile